Airfield :
LOGIN :

Register | Disclaimer

   EN    FR    IT 

 










Legend :    VFR   Marginal VFR   IFR   Intensive IFR   Very Intensive IFR
Visi :
Ceiling :
>= 8 km
>= 3000ft
5 to 8 km
1000 to 3000 ft
1500m to 5 km
500 to 1000 ft
800 to 1500m
200 to 500 ft
< 800m
< 200 ft
Symbols :   Thunderstorms  Fog  Heavy snow  Heavy precipitations  Wind > 20 kt
SIGMETs :     Misc.  Thunderstorms  Icing  Turbulence  Mountain Waves  Volcanic Ashes






- Airport Elevation : 2001 ft
- IATA code : MAD


LEMD - Madrid

CURRENT METAR :
  • 250730Z 02001KT 9999 SCT080 22/14 Q1025 NOSIG

EXPIRED METARs :
  • 250700Z VRB01KT CAVOK 21/14 Q1025 NOSIG
  • 250630Z VRB02KT CAVOK 20/14 Q1025 NOSIG
  • 250600Z 36003KT CAVOK 18/15 Q1025 NOSIG
  • 250530Z 01003KT 330V050 CAVOK 18/14 Q1025 NOSIG
  • 250500Z VRB02KT CAVOK 18/14 Q1024 NOSIG

TAF TAF LEMD
Valid from the 25 at 06:00 until the 26 at 12:00 UTC


250500Z 2506/2612 VRB05KT CAVOK TX30/2516Z TN15/2606Z
PROB30
TEMPO 2510/2515 11010KT
TEMPO 2511/2523 SCT020TCU
PROB40
TEMPO 2513/2522 VRB15G25KT 2000 TS SHRA SCT020CB
PROB30
TEMPO 2515/2521 0800 TSGR
PROB40
TEMPO 2521/2603 03010KT
PROB30
TEMPO 2523/2607 SHRA SCT025TCU
PROB40
TEMPO 2607/2612 SCT020TCU



MET'MAP, your aeronautical weather chart ! - Copyright ORBIFLY December 2007 - Disclaimer

ORBIFLY MET'MAP TEAM :

Programming & Development : Alexandra Zaïnal
Concept & original design : Baudouin d'Aumeries
Assistance for programming : Marc-Olivier Méhu
Technical & hardware support : Manuel Goepfert

Contact : metmap@orbifly.com




SOURCES & CREDITS :

   NOAA